createdAt,value
2024-05-09T00:00:46.238Z,7.07
2024-05-09T00:03:33.546Z,7.07
2024-05-09T00:06:01.134Z,7.07
2024-05-09T00:08:28.742Z,7.08
2024-05-09T00:10:56.178Z,7.08
2024-05-09T00:13:23.613Z,7.08
2024-05-09T00:15:50.833Z,7.07
2024-05-09T00:18:18.213Z,7.07
2024-05-09T00:20:45.528Z,7.07
2024-05-09T00:23:13.573Z,7.07
2024-05-09T00:25:44.943Z,7.07
2024-05-09T00:28:13.532Z,7.04
2024-05-09T00:30:41.368Z,7.03
2024-05-09T00:33:10.547Z,7.02
2024-05-09T00:35:39.611Z,7.00
2024-05-09T00:38:07.466Z,6.99
2024-05-09T00:40:39.977Z,6.99
2024-05-09T00:43:11.255Z,6.98
2024-05-09T00:45:38.992Z,6.97
2024-05-09T00:48:09.018Z,6.97
2024-05-09T00:50:41.193Z,6.96
2024-05-09T00:53:13.752Z,6.95
2024-05-09T00:55:41.579Z,6.94
2024-05-09T00:58:12.059Z,6.93
2024-05-09T01:00:41.347Z,6.93
2024-05-09T01:03:11.833Z,6.92
2024-05-09T01:05:42.645Z,6.91
2024-05-09T01:08:11.137Z,6.91
2024-05-09T01:10:38.601Z,6.90
2024-05-09T01:13:07.272Z,6.89
2024-05-09T01:15:35.379Z,6.88
2024-05-09T01:18:09.016Z,6.87
2024-05-09T01:20:41.849Z,6.87
2024-05-09T01:23:13.362Z,6.87
2024-05-09T01:25:43.004Z,6.87
2024-05-09T01:28:10.614Z,6.87
2024-05-09T01:30:38.618Z,6.86
2024-05-09T01:33:09.760Z,6.85
2024-05-09T01:35:40.243Z,6.83
2024-05-09T01:38:07.728Z,6.82
2024-05-09T01:40:38.730Z,6.80
2024-05-09T01:43:09.381Z,6.79
2024-05-09T01:45:38.571Z,6.78
2024-05-09T01:48:06.832Z,6.76
2024-05-09T01:50:39.550Z,6.74
2024-05-09T01:53:11.612Z,6.71
2024-05-09T01:55:39.202Z,6.69
2024-05-09T01:58:06.853Z,6.67
2024-05-09T02:00:39.496Z,6.66
2024-05-09T02:03:13.529Z,6.65
2024-05-09T02:05:44.725Z,6.62
2024-05-09T02:08:20.481Z,6.60
2024-05-09T02:10:49.660Z,6.59
2024-05-09T02:13:17.606Z,6.58
2024-05-09T02:15:44.947Z,6.57
2024-05-09T02:18:13.018Z,6.56
2024-05-09T02:20:41.881Z,6.54
2024-05-09T02:23:10.278Z,6.53
2024-05-09T02:25:37.708Z,6.51
2024-05-09T02:28:05.318Z,6.47
2024-05-09T02:30:40.065Z,6.45
2024-05-09T02:33:12.948Z,6.43
2024-05-09T02:35:43.654Z,6.40
2024-05-09T02:38:12.308Z,6.38
2024-05-09T02:40:40.583Z,6.35
2024-05-09T02:43:12.289Z,6.33
2024-05-09T02:45:40.572Z,6.31
2024-05-09T02:48:13.286Z,6.30
2024-05-09T02:50:43.546Z,6.30
2024-05-09T02:53:11.261Z,6.27
2024-05-09T02:55:38.688Z,6.26
2024-05-09T02:58:09.985Z,6.25
2024-05-09T03:00:41.082Z,6.25
2024-05-09T03:03:13.203Z,6.24
2024-05-09T03:05:44.052Z,6.22
2024-05-09T03:08:11.619Z,6.22
2024-05-09T03:10:39.727Z,6.21
2024-05-09T03:13:08.532Z,6.20
2024-05-09T03:15:36.058Z,6.20
2024-05-09T03:18:05.186Z,6.19
2024-05-09T03:20:35.040Z,6.18
2024-05-09T03:23:04.880Z,6.19
2024-05-09T03:25:33.040Z,6.19
2024-05-09T03:28:00.364Z,6.20
2024-05-09T03:30:36.747Z,6.19
2024-05-09T03:33:20.389Z,6.21
2024-05-09T03:35:49.061Z,6.23
2024-05-09T03:38:17.215Z,6.27
2024-05-09T03:40:46.680Z,6.29
2024-05-09T03:43:14.567Z,6.33
2024-05-09T03:45:42.933Z,6.37
2024-05-09T03:48:10.573Z,6.41
2024-05-09T03:50:38.467Z,6.46
2024-05-09T03:53:09.466Z,6.52
2024-05-09T03:55:36.798Z,6.58
2024-05-09T03:58:04.361Z,6.65
2024-05-09T04:00:37.647Z,6.70
2024-05-09T04:03:10.306Z,6.75
2024-05-09T04:05:42.239Z,6.78
2024-05-09T04:08:11.192Z,6.81
2024-05-09T04:10:39.049Z,6.84
2024-05-09T04:13:06.524Z,6.90
2024-05-09T04:15:33.776Z,6.97
2024-05-09T04:18:01.898Z,7.06
2024-05-09T04:20:37.656Z,7.14
2024-05-09T04:23:13.525Z,7.24
2024-05-09T04:25:43.438Z,7.33
2024-05-09T04:28:10.786Z,7.42
2024-05-09T04:30:40.813Z,7.51
2024-05-09T04:33:14.037Z,7.61
2024-05-09T04:35:44.061Z,7.69
2024-05-09T04:38:14.102Z,7.78
2024-05-09T04:40:42.031Z,7.83
2024-05-09T04:43:19.283Z,7.87
2024-05-09T04:45:46.933Z,7.95
2024-05-09T04:48:14.692Z,8.01
2024-05-09T04:50:42.303Z,8.09
2024-05-09T04:53:11.083Z,8.20
2024-05-09T04:55:40.151Z,8.30
2024-05-09T04:58:09.192Z,8.41
2024-05-09T05:00:38.909Z,8.53
2024-05-09T05:03:10.817Z,8.67
2024-05-09T05:05:41.587Z,8.80
2024-05-09T05:08:13.694Z,8.93
2024-05-09T05:10:42.459Z,9.05
2024-05-09T05:13:20.066Z,9.18
2024-05-09T05:15:49.822Z,9.31
2024-05-09T05:18:17.554Z,9.43
2024-05-09T05:20:45.342Z,9.57
2024-05-09T05:23:14.671Z,9.69
2024-05-09T05:25:42.455Z,9.78
2024-05-09T05:28:10.721Z,9.86
2024-05-09T05:30:38.709Z,9.96
2024-05-09T05:33:09.789Z,10.08
2024-05-09T05:35:37.584Z,10.21
2024-05-09T05:38:07.528Z,10.32
2024-05-09T05:40:38.209Z,10.44
2024-05-09T05:43:10.611Z,10.55
2024-05-09T05:45:39.021Z,10.68
2024-05-09T05:48:07.592Z,10.81
2024-05-09T05:50:38.186Z,10.93
2024-05-09T05:53:08.026Z,11.06
2024-05-09T05:55:37.079Z,11.16
2024-05-09T05:58:04.949Z,11.26
2024-05-09T06:03:02.559Z,11.54
2024-05-09T06:05:30.212Z,11.68
2024-05-09T06:07:57.503Z,11.83
2024-05-09T06:10:30.101Z,11.94
2024-05-09T06:13:04.754Z,12.05
2024-05-09T06:15:31.972Z,12.15
2024-05-09T06:17:59.466Z,12.22
2024-05-09T06:20:34.394Z,12.31
2024-05-09T06:23:09.023Z,12.40
2024-05-09T06:25:37.299Z,12.51
2024-05-09T06:28:05.465Z,12.59
2024-05-09T06:30:38.709Z,12.68
2024-05-09T06:33:12.506Z,12.77
2024-05-09T06:35:42.311Z,12.84
2024-05-09T06:38:12.719Z,12.93
2024-05-09T06:40:42.350Z,13.04
2024-05-09T06:43:16.748Z,13.16
2024-05-09T06:45:49.965Z,13.27
2024-05-09T06:48:19.444Z,13.33
2024-05-09T06:50:47.598Z,13.34
2024-05-09T06:53:15.891Z,13.30
2024-05-09T06:55:43.249Z,13.38
2024-05-09T06:58:10.591Z,13.46
2024-05-09T07:00:40.615Z,13.54
2024-05-09T07:03:11.614Z,13.60
2024-05-09T07:05:40.261Z,13.60
2024-05-09T07:08:08.040Z,13.66
2024-05-09T07:10:36.663Z,13.73
2024-05-09T07:13:09.553Z,13.82
2024-05-09T07:15:36.897Z,13.90
2024-05-09T07:18:18.377Z,13.99
2024-05-09T07:20:50.746Z,14.11
2024-05-09T07:23:19.073Z,14.21
2024-05-09T07:25:46.694Z,14.26
2024-05-09T07:28:16.012Z,14.32
2024-05-09T07:30:44.473Z,14.44
2024-05-09T07:33:20.309Z,14.58
2024-05-09T07:35:49.366Z,14.72
2024-05-09T07:38:17.313Z,14.88
2024-05-09T07:40:44.676Z,15.03
2024-05-09T07:43:12.705Z,15.21
2024-05-09T07:45:49.391Z,15.39
2024-05-09T07:52:37.671Z,15.68
2024-05-09T07:53:46.151Z,15.78
2024-05-09T07:56:17.742Z,15.82
2024-05-09T07:58:45.711Z,15.84
2024-05-09T08:01:13.146Z,15.89
2024-05-09T08:03:40.757Z,15.99
2024-05-09T08:06:08.238Z,16.09
2024-05-09T08:08:35.462Z,16.20
2024-05-09T08:11:02.983Z,16.31
2024-05-09T08:13:30.400Z,16.44
2024-05-09T08:15:57.655Z,16.56
2024-05-09T08:18:25.006Z,16.66
2024-05-09T08:20:52.420Z,16.79
2024-05-09T08:23:19.765Z,16.89
2024-05-09T08:25:47.782Z,16.99
2024-05-09T08:28:15.155Z,17.11
2024-05-09T08:30:42.594Z,17.29
2024-05-09T08:33:10.088Z,17.46
2024-05-09T08:35:37.479Z,17.62
2024-05-09T08:38:06.327Z,17.81
2024-05-09T08:40:37.266Z,18.07
2024-05-09T08:43:08.614Z,18.35
2024-05-09T08:45:38.106Z,18.60
2024-05-09T08:48:08.029Z,18.70
2024-05-09T08:50:40.247Z,18.78
2024-05-09T08:53:08.660Z,18.71
2024-05-09T08:55:40.448Z,18.57
2024-05-09T08:58:16.245Z,18.55
2024-05-09T09:00:45.641Z,18.75
2024-05-09T09:03:18.910Z,18.85
2024-05-09T09:05:57.003Z,18.86
2024-05-09T09:08:25.543Z,18.98
2024-05-09T09:10:57.336Z,19.25
2024-05-09T09:13:27.562Z,19.58
2024-05-09T09:15:58.160Z,19.80
2024-05-09T09:18:27.406Z,20.03
2024-05-09T09:20:55.410Z,20.15
2024-05-09T09:23:22.726Z,20.31
2024-05-09T09:25:50.215Z,20.41
2024-05-09T09:28:17.744Z,20.47
2024-05-09T09:30:45.270Z,20.43
2024-05-09T09:33:12.856Z,20.31
2024-05-09T09:35:41.000Z,20.21
2024-05-09T09:38:09.622Z,20.25
2024-05-09T09:40:46.610Z,20.41
2024-05-09T09:43:23.262Z,20.72
2024-05-09T09:45:53.322Z,21.07
2024-05-09T09:48:22.750Z,21.23
2024-05-09T09:50:55.018Z,21.25
2024-05-09T09:53:25.404Z,21.31
2024-05-09T09:55:53.157Z,21.48
2024-05-09T09:58:21.297Z,21.69
2024-05-09T10:00:48.811Z,21.91
2024-05-09T10:03:16.317Z,22.23
2024-05-09T10:05:46.437Z,22.67
2024-05-09T10:08:17.393Z,22.89
2024-05-09T10:10:48.216Z,22.95
2024-05-09T10:13:15.975Z,23.18
2024-05-09T10:15:50.845Z,23.37
2024-05-09T10:18:26.324Z,23.68
2024-05-09T10:20:55.941Z,23.74
2024-05-09T10:23:28.213Z,23.85
2024-05-09T10:25:57.176Z,23.94
2024-05-09T10:28:41.986Z,23.68
2024-05-09T10:31:11.359Z,23.28
2024-05-09T10:33:45.953Z,22.96
2024-05-09T10:36:18.379Z,22.78
2024-05-09T10:38:45.590Z,22.65
2024-05-09T10:41:13.411Z,22.57
2024-05-09T10:43:41.612Z,22.63
2024-05-09T10:46:10.765Z,22.72
2024-05-09T10:48:39.594Z,22.78
2024-05-09T10:51:07.976Z,22.69
2024-05-09T10:53:42.259Z,22.42
2024-05-09T10:56:10.540Z,22.23
2024-05-09T10:58:37.691Z,22.34
2024-05-09T11:01:07.681Z,22.51
2024-05-09T11:03:36.561Z,22.81
2024-05-09T11:06:05.136Z,23.08
2024-05-09T11:08:33.613Z,23.58
2024-05-09T11:11:02.786Z,23.94
2024-05-09T11:13:31.647Z,24.21
2024-05-09T11:16:00.124Z,24.59
2024-05-09T11:18:32.176Z,25.01
2024-05-09T11:21:02.841Z,25.48
2024-05-09T11:23:30.510Z,25.77
2024-05-09T11:25:58.537Z,25.74
2024-05-09T11:28:28.610Z,25.84
2024-05-09T11:31:12.315Z,26.06
2024-05-09T11:33:42.975Z,26.47
2024-05-09T11:36:10.834Z,26.89
2024-05-09T11:38:38.079Z,27.26
2024-05-09T11:41:05.909Z,27.41
2024-05-09T11:43:34.113Z,27.64
2024-05-09T11:46:02.436Z,27.86
2024-05-09T11:48:30.656Z,27.80
2024-05-09T11:50:58.314Z,27.60
2024-05-09T11:53:25.479Z,27.80
2024-05-09T11:55:53.180Z,28.35
2024-05-09T11:58:22.312Z,28.69
2024-05-09T12:00:49.718Z,29.07
2024-05-09T12:03:17.078Z,29.64
2024-05-09T12:05:45.077Z,29.72
2024-05-09T12:08:13.337Z,29.77
2024-05-09T12:10:40.996Z,29.83
2024-05-09T12:13:08.590Z,29.65
2024-05-09T12:15:37.931Z,29.80
2024-05-09T12:18:07.607Z,30.18
2024-05-09T12:20:38.754Z,30.56
2024-05-09T12:23:09.848Z,30.54
2024-05-09T12:25:39.423Z,30.53
2024-05-09T12:28:08.113Z,30.42
2024-05-09T12:30:39.953Z,30.56
2024-05-09T12:33:13.212Z,30.98
2024-05-09T12:35:44.231Z,31.70
2024-05-09T12:38:14.690Z,32.28
2024-05-09T12:40:42.656Z,32.79
2024-05-09T12:43:11.252Z,33.12
2024-05-09T12:45:39.935Z,33.64
2024-05-09T12:48:10.810Z,34.05
2024-05-09T12:50:38.628Z,34.53
2024-05-09T12:53:06.105Z,34.64
2024-05-09T12:55:40.649Z,34.46
2024-05-09T12:58:19.150Z,34.59
2024-05-09T13:00:47.155Z,34.80
2024-05-09T13:03:15.715Z,35.19
2024-05-09T13:05:46.292Z,35.62
2024-05-09T13:08:13.985Z,35.86
2024-05-09T13:10:41.948Z,36.08
2024-05-09T13:13:10.269Z,36.11
2024-05-09T13:15:38.182Z,35.89
2024-05-09T13:18:06.205Z,35.57
2024-05-09T13:20:36.599Z,35.36
2024-05-09T13:23:06.472Z,35.64
2024-05-09T13:25:36.306Z,36.06
2024-05-09T13:28:04.791Z,36.39
2024-05-09T13:30:40.027Z,36.46
2024-05-09T13:33:11.870Z,36.27
2024-05-09T13:35:47.365Z,36.28
2024-05-09T13:38:19.602Z,36.43
2024-05-09T13:40:47.983Z,36.41
2024-05-09T13:43:15.614Z,36.41
2024-05-09T13:45:43.036Z,36.60
2024-05-09T13:48:10.722Z,37.08
2024-05-09T13:50:38.764Z,37.71
2024-05-09T13:53:07.620Z,38.32
2024-05-09T13:55:39.741Z,38.89
2024-05-09T13:58:08.618Z,39.14
2024-05-09T14:00:44.906Z,39.37
2024-05-09T14:03:18.788Z,39.69
2024-05-09T14:05:49.528Z,40.05
2024-05-09T14:08:19.215Z,40.19
2024-05-09T14:10:47.274Z,40.27
2024-05-09T14:13:15.324Z,40.52
2024-05-09T14:15:42.914Z,40.06
2024-05-09T14:18:13.299Z,39.53
2024-05-09T14:20:42.338Z,39.54
2024-05-09T14:23:09.993Z,39.68
2024-05-09T14:25:41.834Z,39.99
2024-05-09T14:28:12.932Z,40.55
2024-05-09T14:30:41.842Z,41.05
2024-05-09T14:33:10.017Z,41.40
2024-05-09T14:35:38.833Z,41.61
2024-05-09T14:38:08.378Z,41.61
2024-05-09T14:40:41.616Z,41.59
2024-05-09T14:43:13.075Z,41.58
2024-05-09T14:45:41.843Z,41.59
2024-05-09T14:48:10.003Z,41.52
2024-05-09T14:50:39.610Z,41.51
2024-05-09T14:53:10.311Z,41.41
2024-05-09T14:55:40.073Z,41.23
2024-05-09T14:58:10.023Z,41.10
2024-05-09T15:00:45.838Z,41.31
2024-05-09T15:03:21.802Z,41.99
2024-05-09T15:05:50.926Z,42.67
2024-05-09T15:08:19.385Z,43.30
2024-05-09T15:10:48.860Z,43.86
2024-05-09T15:13:17.288Z,44.15
2024-05-09T15:15:45.364Z,44.27
2024-05-09T15:18:14.187Z,44.19
2024-05-09T15:20:44.363Z,44.03
2024-05-09T15:23:11.866Z,43.65
2024-05-09T15:25:39.211Z,43.42
2024-05-09T15:28:08.136Z,43.43
2024-05-09T15:30:36.156Z,43.72
2024-05-09T15:33:04.639Z,43.66
2024-05-09T15:35:33.146Z,43.34
2024-05-09T15:38:02.373Z,43.25
2024-05-09T15:40:37.242Z,43.60
2024-05-09T15:43:09.741Z,43.93
2024-05-09T15:45:39.827Z,43.99
2024-05-09T15:48:08.257Z,43.83
2024-05-09T15:50:39.893Z,43.65
2024-05-09T15:53:11.136Z,43.55
2024-05-09T15:55:39.071Z,42.85
2024-05-09T15:58:07.406Z,42.08
2024-05-09T16:00:39.637Z,41.66
2024-05-09T16:03:10.615Z,41.71
2024-05-09T16:05:38.722Z,41.75
2024-05-09T16:08:07.147Z,41.48
2024-05-09T16:10:35.422Z,41.40
2024-05-09T16:13:03.932Z,41.50
2024-05-09T16:15:32.151Z,41.29
2024-05-09T16:18:00.650Z,40.97
2024-05-09T16:20:37.910Z,40.47
2024-05-09T16:23:08.768Z,39.91
2024-05-09T16:25:36.961Z,39.65
2024-05-09T16:28:08.681Z,39.66
2024-05-09T16:30:39.692Z,39.82
2024-05-09T16:33:08.611Z,39.66
2024-05-09T16:35:38.873Z,39.45
2024-05-09T16:38:06.265Z,39.21
2024-05-09T16:40:38.612Z,39.08
2024-05-09T16:43:09.546Z,38.73
2024-05-09T16:45:39.824Z,38.32
2024-05-09T16:48:08.861Z,37.99
2024-05-09T16:50:36.847Z,37.66
2024-05-09T16:53:06.160Z,37.28
2024-05-09T16:55:38.061Z,37.03
2024-05-09T16:58:07.577Z,36.77
2024-05-09T17:00:40.933Z,36.40
2024-05-09T17:03:15.526Z,35.91
2024-05-09T17:05:46.592Z,35.27
2024-05-09T17:08:16.546Z,34.74
2024-05-09T17:10:48.057Z,34.09
2024-05-09T17:13:15.979Z,33.29
2024-05-09T17:15:43.337Z,32.36
2024-05-09T17:18:10.755Z,31.14
2024-05-09T17:20:38.291Z,29.91
2024-05-09T17:23:12.157Z,28.62
2024-05-09T17:25:39.677Z,27.38
2024-05-09T17:28:08.590Z,26.39
2024-05-09T17:30:38.688Z,25.47
2024-05-09T17:33:09.708Z,24.70
2024-05-09T17:35:38.078Z,23.92
2024-05-09T17:38:09.092Z,23.31
2024-05-09T17:40:38.385Z,22.71
2024-05-09T17:43:09.222Z,22.15
2024-05-09T17:45:41.681Z,21.69
2024-05-09T17:48:11.684Z,21.29
2024-05-09T17:50:41.484Z,20.91
2024-05-09T17:53:09.963Z,20.56
2024-05-09T17:55:37.822Z,20.25
2024-05-09T17:58:05.947Z,19.96
2024-05-09T18:00:38.962Z,19.70
2024-05-09T18:03:11.037Z,19.43
2024-05-09T18:05:39.434Z,19.19
2024-05-09T18:08:07.895Z,18.95
2024-05-09T18:10:38.490Z,18.71
2024-05-09T18:13:09.011Z,18.43
2024-05-09T18:15:37.617Z,18.20
2024-05-09T18:18:06.352Z,17.99
2024-05-09T18:20:41.853Z,17.77
2024-05-09T18:23:18.007Z,17.58
2024-05-09T18:25:47.237Z,17.44
2024-05-09T18:28:16.720Z,17.31
2024-05-09T18:30:44.734Z,17.17
2024-05-09T18:33:12.568Z,17.02
2024-05-09T18:35:44.493Z,16.87
2024-05-09T18:38:12.145Z,16.74
2024-05-09T18:40:41.052Z,16.60
2024-05-09T18:43:10.763Z,16.46
2024-05-09T18:45:38.818Z,16.36
2024-05-09T18:48:09.532Z,16.25
2024-05-09T18:50:40.116Z,16.14
2024-05-09T18:53:10.854Z,16.03
2024-05-09T18:55:39.040Z,15.91
2024-05-09T18:58:06.711Z,15.80
2024-05-09T19:00:37.620Z,15.66
2024-05-09T19:03:08.071Z,15.56
2024-05-09T19:05:37.035Z,15.47
2024-05-09T19:08:05.454Z,15.39
2024-05-09T19:10:35.090Z,15.31
2024-05-09T19:13:08.230Z,15.22
2024-05-09T19:15:40.391Z,15.12
2024-05-09T19:18:09.405Z,15.02
2024-05-09T19:20:37.959Z,14.92
2024-05-09T19:23:06.544Z,14.84
2024-05-09T19:25:36.227Z,14.72
2024-05-09T19:28:05.481Z,14.63
2024-05-09T19:30:39.007Z,14.54
2024-05-09T19:33:12.480Z,14.45
2024-05-09T19:35:42.295Z,14.36
2024-05-09T19:38:10.386Z,14.28
2024-05-09T19:40:37.842Z,14.19
2024-05-09T19:43:06.305Z,14.12
2024-05-09T19:45:35.439Z,14.05
2024-05-09T19:48:05.145Z,13.98
2024-05-09T19:50:41.345Z,13.91
2024-05-09T19:53:13.085Z,13.84
2024-05-09T19:55:41.605Z,13.78
2024-05-09T19:58:10.001Z,13.73
2024-05-09T20:00:40.389Z,13.66
2024-05-09T20:03:11.871Z,13.58
2024-05-09T20:05:42.102Z,13.51
2024-05-09T20:08:09.442Z,13.45
2024-05-09T20:10:37.368Z,13.38
2024-05-09T20:13:06.905Z,13.30
2024-05-09T20:15:36.099Z,13.24
2024-05-09T20:18:04.068Z,13.17
2024-05-09T20:20:37.939Z,13.11
2024-05-09T20:23:10.455Z,13.02
2024-05-09T20:25:37.857Z,12.91
2024-05-09T20:28:05.791Z,12.83
2024-05-09T20:30:34.751Z,12.74
2024-05-09T20:33:05.197Z,12.65
2024-05-09T20:35:35.147Z,12.59
2024-05-09T20:38:03.667Z,12.51
2024-05-09T20:40:35.683Z,12.41
2024-05-09T20:43:07.709Z,12.32
2024-05-09T20:45:35.739Z,12.25
2024-05-09T20:48:03.689Z,12.18
2024-05-09T20:50:38.468Z,12.11
2024-05-09T20:53:10.868Z,12.08
2024-05-09T20:55:39.404Z,12.03
2024-05-09T20:58:06.672Z,11.97
2024-05-09T21:00:39.606Z,11.93
2024-05-09T21:03:12.339Z,11.89
2024-05-09T21:05:41.068Z,11.85
2024-05-09T21:08:08.701Z,11.83
2024-05-09T21:10:36.871Z,11.81
2024-05-09T21:13:05.687Z,11.79
2024-05-09T21:15:33.941Z,11.75
2024-05-09T21:18:01.509Z,11.73
2024-05-09T21:20:32.451Z,11.72
2024-05-09T21:23:01.601Z,11.70
2024-05-09T21:25:29.658Z,11.68
2024-05-09T21:27:57.332Z,11.64
2024-05-09T21:30:37.001Z,11.59
2024-05-09T21:33:09.708Z,11.52
2024-05-09T21:35:38.712Z,11.45
2024-05-09T21:38:06.761Z,11.39
2024-05-09T21:40:35.903Z,11.35
2024-05-09T21:43:06.448Z,11.31
2024-05-09T21:45:35.192Z,11.26
2024-05-09T21:48:03.892Z,11.20
2024-05-09T21:50:36.938Z,11.13
2024-05-09T21:53:08.040Z,11.08
2024-05-09T21:55:35.255Z,11.01
2024-05-09T21:58:03.253Z,10.97
2024-05-09T22:00:36.678Z,10.92
2024-05-09T22:03:07.756Z,10.87
2024-05-09T22:05:37.173Z,10.84
2024-05-09T22:08:04.787Z,10.79
2024-05-09T22:10:34.974Z,10.74
2024-05-09T22:13:05.741Z,10.69
2024-05-09T22:15:36.836Z,10.65
2024-05-09T22:18:06.229Z,10.62
2024-05-09T22:20:38.150Z,10.59
2024-05-09T22:23:08.321Z,10.55
2024-05-09T22:25:38.059Z,10.50
2024-05-09T22:28:05.845Z,10.47
2024-05-09T22:30:37.336Z,10.45
2024-05-09T22:33:09.336Z,10.44
2024-05-09T22:35:38.398Z,10.43
2024-05-09T22:38:06.011Z,10.42
2024-05-09T22:40:42.901Z,10.42
2024-05-09T22:43:20.295Z,10.41
2024-05-09T22:45:48.513Z,10.41
2024-05-09T22:48:15.965Z,10.39
2024-05-09T22:50:43.308Z,10.37
2024-05-09T22:53:11.207Z,10.35
2024-05-09T22:55:38.401Z,10.35
2024-05-09T22:58:05.679Z,10.37
2024-05-09T23:00:33.437Z,10.38
2024-05-09T23:03:01.504Z,10.38
2024-05-09T23:05:31.583Z,10.35
2024-05-09T23:08:00.993Z,10.34
2024-05-09T23:10:35.528Z,10.29
2024-05-09T23:13:06.741Z,10.24
2024-05-09T23:15:37.242Z,10.19
2024-05-09T23:18:05.475Z,10.14
2024-05-09T23:20:37.913Z,10.09
2024-05-09T23:23:08.795Z,10.04
2024-05-09T23:25:37.289Z,10.01
2024-05-09T23:28:05.381Z,9.96
2024-05-09T23:30:37.947Z,9.92
2024-05-09T23:33:10.457Z,9.89
2024-05-09T23:35:40.721Z,9.86
2024-05-09T23:38:07.940Z,9.84
2024-05-09T23:40:39.591Z,9.83
2024-05-09T23:43:12.320Z,9.80
2024-05-09T23:45:41.188Z,9.77
2024-05-09T23:48:09.290Z,9.75
2024-05-09T23:50:38.689Z,9.73
2024-05-09T23:53:09.205Z,9.67
2024-05-09T23:55:38.300Z,9.58
2024-05-09T23:58:07.056Z,9.53
